createdAt,value
2022-11-16T00:01:41.513Z,5.90
2022-11-16T00:04:11.948Z,4.00
2022-11-16T00:06:39.737Z,5.07
2022-11-16T00:09:23.191Z,5.63
2022-11-16T00:11:56.053Z,5.87
2022-11-16T00:14:25.428Z,5.37
2022-11-16T00:16:53.302Z,5.07
2022-11-16T00:19:21.249Z,5.47
2022-11-16T00:21:49.355Z,5.40
2022-11-16T00:24:18.453Z,4.60
2022-11-16T00:26:46.623Z,6.37
2022-11-16T00:29:17.375Z,5.83
2022-11-16T00:31:45.787Z,4.87
2022-11-16T00:34:13.648Z,5.20
2022-11-16T00:36:41.443Z,4.73
2022-11-16T00:39:11.991Z,5.30
2022-11-16T00:41:39.884Z,6.00
2022-11-16T00:44:07.730Z,5.13
2022-11-16T00:46:36.769Z,5.03
2022-11-16T00:49:05.915Z,5.77
2022-11-16T00:51:34.221Z,6.07
2022-11-16T00:54:02.086Z,5.50
2022-11-16T00:56:30.069Z,5.57
2022-11-16T00:58:57.756Z,5.40
2022-11-16T01:01:25.538Z,6.00
2022-11-16T01:03:54.744Z,5.30
2022-11-16T01:06:23.439Z,5.03
2022-11-16T01:08:51.649Z,6.10
2022-11-16T01:11:37.554Z,5.80
2022-11-16T01:14:06.927Z,6.03
2022-11-16T01:16:35.075Z,6.10
2022-11-16T01:19:04.985Z,5.00
2022-11-16T01:21:32.786Z,6.97
2022-11-16T01:24:00.471Z,4.73
2022-11-16T01:26:28.293Z,5.43
2022-11-16T01:28:55.994Z,5.87
2022-11-16T01:31:23.858Z,5.20
2022-11-16T01:33:51.592Z,6.73
2022-11-16T01:36:20.705Z,6.47
2022-11-16T01:38:48.818Z,5.87
2022-11-16T01:41:18.371Z,5.70
2022-11-16T01:43:58.385Z,4.27
2022-11-16T01:46:27.137Z,5.13
2022-11-16T01:48:59.051Z,6.30
2022-11-16T01:51:28.736Z,6.33
2022-11-16T01:53:57.146Z,6.10
2022-11-16T01:56:26.314Z,5.63
2022-11-16T01:58:54.678Z,6.70
2022-11-16T02:01:22.486Z,5.73
2022-11-16T02:03:50.368Z,5.97
2022-11-16T02:06:44.489Z,6.43
2022-11-16T02:09:51.349Z,6.30
2022-11-16T02:12:42.553Z,5.13
2022-11-16T02:15:19.318Z,6.80
2022-11-16T02:17:55.977Z,5.93
2022-11-16T02:20:39.908Z,6.43
2022-11-16T02:23:36.148Z,5.03
2022-11-16T02:26:17.573Z,5.13
2022-11-16T02:28:54.869Z,6.33
2022-11-16T02:31:29.206Z,6.00
2022-11-16T02:33:57.926Z,5.17
2022-11-16T02:36:26.255Z,5.20
2022-11-16T02:38:59.059Z,6.20
2022-11-16T02:41:29.445Z,5.90
2022-11-16T02:44:03.841Z,4.93
2022-11-16T02:46:38.025Z,5.10
2022-11-16T02:49:11.342Z,5.80
2022-11-16T02:51:40.586Z,5.70
2022-11-16T02:54:12.941Z,6.47
2022-11-16T02:56:49.440Z,5.50
2022-11-16T02:59:17.953Z,5.13
2022-11-16T03:01:50.423Z,4.80
2022-11-16T03:04:22.132Z,5.63
2022-11-16T03:06:52.491Z,6.43
2022-11-16T03:09:25.450Z,5.83
2022-11-16T03:11:59.995Z,5.90
2022-11-16T03:14:32.556Z,5.53
2022-11-16T03:17:04.091Z,5.10
2022-11-16T03:19:36.512Z,5.90
2022-11-16T03:22:11.611Z,5.27
2022-11-16T03:24:39.791Z,5.30
2022-11-16T03:27:14.917Z,7.00
2022-11-16T03:29:49.786Z,6.13
2022-11-16T03:32:24.360Z,6.43
2022-11-16T03:34:58.408Z,5.10
2022-11-16T03:37:27.284Z,5.13
2022-11-16T03:39:55.736Z,5.43
2022-11-16T03:42:24.692Z,6.50
2022-11-16T03:44:53.769Z,6.77
2022-11-16T03:47:22.862Z,6.53
2022-11-16T03:49:50.726Z,5.83
2022-11-16T03:52:18.754Z,6.67
2022-11-16T03:54:46.445Z,6.63
2022-11-16T03:57:18.613Z,6.23
2022-11-16T03:59:46.938Z,5.77
2022-11-16T04:02:15.050Z,6.10
2022-11-16T04:05:01.613Z,5.73
2022-11-16T04:07:47.281Z,5.57
2022-11-16T04:10:32.705Z,6.07
2022-11-16T04:13:19.225Z,6.33
2022-11-16T04:16:04.718Z,6.30
2022-11-16T04:18:50.197Z,5.70
2022-11-16T04:21:41.458Z,5.83
2022-11-16T04:24:13.445Z,5.00
2022-11-16T04:27:00.940Z,6.47
2022-11-16T04:29:29.083Z,6.93
2022-11-16T04:32:14.510Z,5.93
2022-11-16T04:34:59.673Z,5.40
2022-11-16T04:37:46.966Z,5.40
2022-11-16T04:40:15.989Z,5.43
2022-11-16T04:42:44.017Z,6.07
2022-11-16T04:45:34.851Z,7.57
2022-11-16T04:48:02.891Z,5.70
2022-11-16T04:50:30.714Z,6.07
2022-11-16T04:53:00.170Z,6.07
2022-11-16T04:55:27.910Z,5.90
2022-11-16T04:57:55.845Z,5.40
2022-11-16T05:00:24.014Z,6.37
2022-11-16T05:02:53.695Z,6.50
2022-11-16T05:05:23.942Z,6.47
2022-11-16T05:07:51.614Z,5.97
2022-11-16T05:10:20.870Z,6.20
2022-11-16T05:12:48.652Z,6.57
2022-11-16T05:15:17.535Z,5.90
2022-11-16T05:17:45.354Z,5.37
2022-11-16T05:20:39.276Z,5.90
2022-11-16T05:23:27.020Z,5.93
2022-11-16T05:25:56.083Z,5.73
2022-11-16T05:28:23.778Z,6.43
2022-11-16T05:30:51.611Z,6.20
2022-11-16T05:33:19.433Z,5.33
2022-11-16T05:35:47.118Z,5.93
2022-11-16T05:38:14.914Z,5.93
2022-11-16T05:40:42.627Z,4.53
2022-11-16T05:43:12.057Z,6.00
2022-11-16T05:45:39.821Z,6.00
2022-11-16T05:48:07.538Z,4.83
2022-11-16T05:50:39.851Z,5.70
2022-11-16T05:53:10.233Z,7.33
2022-11-16T05:55:38.023Z,5.43
2022-11-16T05:58:05.721Z,4.10
2022-11-16T06:00:34.748Z,5.60
2022-11-16T06:03:02.908Z,4.93
2022-11-16T06:05:30.685Z,5.07
2022-11-16T06:07:58.485Z,5.43
2022-11-16T06:10:26.586Z,5.03
2022-11-16T06:12:54.369Z,5.07
2022-11-16T06:15:22.073Z,5.70
2022-11-16T06:17:54.050Z,4.63
2022-11-16T06:20:22.197Z,5.63
2022-11-16T06:22:49.944Z,6.20
2022-11-16T06:25:17.880Z,5.60
2022-11-16T06:27:45.595Z,6.47
2022-11-16T06:30:13.797Z,6.43
2022-11-16T06:32:41.565Z,4.37
2022-11-16T06:35:10.955Z,5.93
2022-11-16T06:37:38.692Z,5.90
2022-11-16T06:40:10.057Z,6.23
2022-11-16T06:42:42.944Z,5.10
2022-11-16T06:45:11.311Z,5.63
2022-11-16T06:47:39.107Z,5.97
2022-11-16T06:50:07.566Z,6.27
2022-11-16T06:52:36.723Z,5.37
2022-11-16T06:55:04.476Z,5.57
2022-11-16T06:57:32.160Z,5.30
2022-11-16T06:59:59.849Z,5.57
2022-11-16T07:02:27.587Z,6.23
2022-11-16T07:04:59.235Z,4.83
2022-11-16T07:07:29.965Z,6.23
2022-11-16T07:09:59.142Z,7.17
2022-11-16T07:12:27.200Z,5.83
2022-11-16T07:14:54.904Z,4.90
2022-11-16T07:17:22.794Z,6.07
2022-11-16T07:19:50.792Z,5.90
2022-11-16T07:22:18.524Z,6.27
2022-11-16T07:24:46.525Z,5.70
2022-11-16T07:27:15.570Z,6.73
2022-11-16T07:29:43.524Z,7.37
2022-11-16T07:32:11.497Z,5.23
2022-11-16T07:34:39.221Z,5.37
2022-11-16T07:37:06.955Z,6.37
2022-11-16T07:39:34.683Z,5.33
2022-11-16T07:42:02.367Z,5.57
2022-11-16T07:44:31.492Z,5.90
2022-11-16T07:46:59.177Z,4.97
2022-11-16T07:49:26.871Z,6.47
2022-11-16T07:51:54.720Z,6.97
2022-11-16T07:54:22.497Z,6.07
2022-11-16T07:56:50.339Z,6.23
2022-11-16T07:59:18.057Z,5.17
2022-11-16T08:01:49.659Z,5.87
2022-11-16T08:04:17.570Z,5.93
2022-11-16T08:06:46.808Z,5.37
2022-11-16T08:09:14.812Z,5.90
2022-11-16T08:11:42.510Z,5.43
2022-11-16T08:14:10.220Z,5.67
2022-11-16T08:16:37.945Z,6.37
2022-11-16T08:19:07.217Z,5.13
2022-11-16T08:21:35.048Z,6.87
2022-11-16T08:24:02.893Z,5.70
2022-11-16T08:26:30.657Z,6.67
2022-11-16T08:28:58.406Z,5.80
2022-11-16T08:31:28.761Z,6.13
2022-11-16T08:33:56.911Z,5.97
2022-11-16T08:36:25.949Z,6.30
2022-11-16T08:38:54.594Z,5.93
2022-11-16T08:41:22.925Z,6.97
2022-11-16T08:43:53.114Z,6.33
2022-11-16T08:46:21.542Z,7.23
2022-11-16T08:48:49.409Z,7.47
2022-11-16T08:51:20.525Z,6.77
2022-11-16T08:53:50.342Z,7.47
2022-11-16T08:56:19.318Z,6.10
2022-11-16T08:58:50.299Z,6.93
2022-11-16T09:01:22.635Z,6.00
2022-11-16T09:03:50.744Z,7.20
2022-11-16T09:06:19.122Z,5.90
2022-11-16T09:08:47.605Z,6.73
2022-11-16T09:11:18.660Z,6.70
2022-11-16T09:13:47.838Z,6.23
2022-11-16T09:16:16.862Z,7.40
2022-11-16T09:18:45.585Z,6.97
2022-11-16T09:21:13.881Z,6.83
2022-11-16T09:23:41.655Z,6.40
2022-11-16T09:26:09.361Z,6.90
2022-11-16T09:28:38.504Z,5.53
2022-11-16T09:31:07.069Z,5.90
2022-11-16T09:33:35.475Z,4.63
2022-11-16T09:36:06.908Z,6.83
2022-11-16T09:38:55.713Z,6.93
2022-11-16T09:41:43.226Z,5.63
2022-11-16T09:44:29.040Z,7.57
2022-11-16T09:46:59.620Z,7.07
2022-11-16T09:49:32.263Z,6.27
2022-11-16T09:52:04.380Z,8.27
2022-11-16T09:54:41.109Z,7.27
2022-11-16T09:57:12.932Z,6.03
2022-11-16T09:59:46.617Z,6.43
2022-11-16T10:02:23.448Z,6.03
2022-11-16T10:04:58.523Z,6.77
2022-11-16T10:07:31.246Z,6.60
2022-11-16T10:09:59.485Z,6.27
2022-11-16T10:12:31.233Z,7.43
2022-11-16T10:15:28.401Z,6.97
2022-11-16T10:18:08.938Z,5.93
2022-11-16T10:20:54.988Z,6.07
2022-11-16T10:23:31.878Z,7.17
2022-11-16T10:26:10.659Z,6.53
2022-11-16T10:28:55.589Z,6.77
2022-11-16T10:31:32.341Z,7.63
2022-11-16T10:34:01.757Z,6.87
2022-11-16T10:36:33.034Z,6.83
2022-11-16T10:39:02.525Z,5.83
2022-11-16T10:41:36.448Z,7.27
2022-11-16T10:44:11.919Z,7.50
2022-11-16T10:46:45.185Z,6.57
2022-11-16T10:49:20.210Z,7.17
2022-11-16T10:51:48.075Z,7.87
2022-11-16T10:54:17.135Z,6.30
2022-11-16T10:56:46.710Z,8.80
2022-11-16T10:59:15.555Z,6.77
2022-11-16T11:01:49.832Z,7.50
2022-11-16T11:04:21.883Z,6.20
2022-11-16T11:06:52.309Z,7.73
2022-11-16T11:09:32.495Z,7.10
2022-11-16T11:12:31.604Z,7.33
2022-11-16T11:15:05.833Z,6.50
2022-11-16T11:17:36.929Z,7.93
2022-11-16T11:20:06.799Z,5.47
2022-11-16T11:22:42.806Z,6.40
2022-11-16T11:25:21.062Z,5.67
2022-11-16T11:27:48.962Z,7.50
2022-11-16T11:30:21.040Z,5.83
2022-11-16T11:32:53.035Z,6.73
2022-11-16T11:35:25.527Z,6.07
2022-11-16T11:37:56.469Z,6.43
2022-11-16T11:40:25.670Z,6.87
2022-11-16T11:42:56.801Z,7.73
2022-11-16T11:45:31.060Z,6.93
2022-11-16T11:48:03.443Z,7.43
2022-11-16T11:50:45.272Z,7.90
2022-11-16T11:53:23.094Z,6.33
2022-11-16T11:55:56.616Z,7.27
2022-11-16T11:58:30.409Z,6.67
2022-11-16T12:01:25.454Z,7.33
2022-11-16T12:04:20.603Z,7.33
2022-11-16T12:06:55.943Z,7.47
2022-11-16T12:09:34.626Z,7.07
2022-11-16T12:12:15.515Z,6.07
2022-11-16T12:15:09.570Z,6.50
2022-11-16T12:17:45.709Z,6.63
2022-11-16T12:20:36.156Z,7.10
2022-11-16T12:23:31.976Z,6.77
2022-11-16T12:26:08.484Z,6.77
2022-11-16T12:28:52.263Z,7.93
2022-11-16T12:31:46.441Z,7.43
2022-11-16T12:34:24.015Z,6.97
2022-11-16T12:37:01.062Z,6.80
2022-11-16T12:39:35.190Z,7.57
2022-11-16T12:42:28.148Z,7.70
2022-11-16T12:45:18.402Z,6.13
2022-11-16T12:48:03.701Z,8.40
2022-11-16T12:50:44.073Z,8.30
2022-11-16T12:53:26.783Z,7.57
2022-11-16T12:56:01.593Z,6.87
2022-11-16T12:58:56.910Z,7.00
2022-11-16T13:01:30.895Z,6.60
2022-11-16T13:04:03.721Z,7.90
2022-11-16T13:06:35.635Z,6.20
2022-11-16T13:09:08.519Z,6.30
2022-11-16T13:11:40.796Z,7.93
2022-11-16T13:14:15.167Z,8.03
2022-11-16T13:16:44.014Z,6.80
2022-11-16T13:19:14.688Z,7.57
2022-11-16T13:21:50.459Z,8.27
2022-11-16T13:24:33.390Z,7.00
2022-11-16T13:27:18.537Z,6.97
2022-11-16T13:29:53.889Z,7.30
2022-11-16T13:32:26.230Z,6.57
2022-11-16T13:34:54.459Z,7.27
2022-11-16T13:37:48.196Z,8.30
2022-11-16T13:40:27.062Z,8.60
2022-11-16T13:43:08.356Z,6.93
2022-11-16T13:45:41.059Z,9.03
2022-11-16T13:48:18.425Z,7.60
2022-11-16T13:50:51.981Z,8.97
2022-11-16T13:56:16.679Z,6.63
2022-11-16T13:58:47.159Z,5.73
2022-11-16T14:01:15.618Z,7.70
2022-11-16T14:03:44.321Z,6.67
2022-11-16T14:06:47.983Z,7.17
2022-11-16T14:09:43.932Z,8.07
2022-11-16T14:12:56.891Z,5.83
2022-11-16T14:15:35.485Z,6.90
2022-11-16T14:18:37.407Z,5.13
2022-11-16T14:21:24.493Z,5.83
2022-11-16T14:24:15.855Z,4.30
2022-11-16T14:26:52.298Z,5.97
2022-11-16T14:29:43.355Z,4.83
2022-11-16T14:32:22.180Z,5.60
2022-11-16T14:34:52.263Z,4.33
2022-11-16T14:37:32.183Z,5.40
2022-11-16T14:40:03.649Z,5.50
2022-11-16T14:42:43.047Z,4.90
2022-11-16T14:45:26.517Z,6.07
2022-11-16T14:48:00.613Z,5.43
2022-11-16T14:50:30.155Z,5.97
2022-11-16T14:53:01.505Z,5.63
2022-11-16T14:55:29.353Z,5.10
2022-11-16T14:58:11.270Z,4.77
2022-11-16T15:00:39.672Z,6.03
2022-11-16T15:03:13.072Z,5.30
2022-11-16T15:05:40.810Z,4.30
2022-11-16T15:08:16.749Z,5.17
2022-11-16T15:10:51.072Z,4.70
2022-11-16T15:13:21.780Z,4.93
2022-11-16T15:15:50.321Z,3.70
2022-11-16T15:18:22.023Z,4.90
2022-11-16T15:20:51.725Z,5.40
2022-11-16T15:23:22.947Z,5.57
2022-11-16T15:25:55.399Z,5.63
2022-11-16T15:28:25.965Z,6.37
2022-11-16T15:30:55.920Z,5.63
2022-11-16T15:33:27.766Z,6.90
2022-11-16T15:35:56.489Z,5.20
2022-11-16T15:38:26.718Z,5.63
2022-11-16T15:40:56.409Z,4.87
2022-11-16T15:43:26.859Z,5.27
2022-11-16T15:45:55.959Z,5.53
2022-11-16T15:48:26.602Z,4.97
2022-11-16T15:51:08.100Z,6.30
2022-11-16T15:53:38.730Z,5.73
2022-11-16T15:56:09.052Z,5.20
2022-11-16T15:58:39.546Z,5.30
2022-11-16T16:01:08.024Z,5.87
2022-11-16T16:03:38.143Z,5.87
2022-11-16T16:06:07.832Z,5.57
2022-11-16T16:08:37.020Z,4.63
2022-11-16T16:11:10.168Z,5.40
2022-11-16T16:13:40.273Z,5.00
2022-11-16T16:16:23.839Z,4.57
2022-11-16T16:18:54.648Z,4.47
2022-11-16T16:21:22.688Z,4.53
2022-11-16T16:23:52.158Z,7.17
2022-11-16T16:26:20.077Z,6.33
2022-11-16T16:28:47.839Z,5.53
2022-11-16T16:31:18.027Z,3.40
2022-11-16T16:33:46.074Z,4.83
2022-11-16T16:36:15.337Z,5.17
2022-11-16T16:38:43.252Z,4.90
2022-11-16T16:41:24.247Z,4.57
2022-11-16T16:43:53.121Z,5.77
2022-11-16T16:46:21.598Z,4.73
2022-11-16T16:48:49.342Z,4.13
2022-11-16T16:51:18.373Z,4.30
2022-11-16T16:53:46.112Z,4.80
2022-11-16T16:56:16.233Z,4.27
2022-11-16T16:58:44.018Z,5.23
2022-11-16T17:01:12.379Z,6.20
2022-11-16T17:03:40.135Z,4.07
2022-11-16T17:06:08.131Z,4.63
2022-11-16T17:08:38.891Z,3.67
2022-11-16T17:11:06.708Z,4.30
2022-11-16T17:13:34.723Z,4.57
2022-11-16T17:16:05.738Z,4.17
2022-11-16T17:18:33.496Z,4.30
2022-11-16T17:21:04.916Z,3.00
2022-11-16T17:23:33.176Z,3.70
2022-11-16T17:26:05.008Z,4.40
2022-11-16T17:28:32.858Z,4.00
2022-11-16T17:31:03.117Z,3.80
2022-11-16T17:33:34.743Z,3.07
2022-11-16T17:36:03.860Z,3.40
2022-11-16T17:38:31.620Z,3.50
2022-11-16T17:41:05.909Z,2.90
2022-11-16T17:43:34.909Z,3.77
2022-11-16T17:46:04.995Z,3.40
2022-11-16T17:48:32.986Z,2.87
2022-11-16T17:51:00.928Z,4.00
2022-11-16T17:53:32.652Z,3.43
2022-11-16T17:56:00.816Z,3.20
2022-11-16T17:58:30.794Z,3.07
2022-11-16T18:00:59.115Z,3.63
2022-11-16T18:03:28.244Z,2.87
2022-11-16T18:06:03.588Z,2.87
2022-11-16T18:08:32.282Z,3.30
2022-11-16T18:11:05.479Z,2.83
2022-11-16T18:13:35.478Z,3.20
2022-11-16T18:16:05.586Z,2.97
2022-11-16T18:18:33.806Z,3.47
2022-11-16T18:21:02.087Z,3.70
2022-11-16T18:23:30.035Z,3.00
2022-11-16T18:25:57.755Z,2.10
2022-11-16T18:28:25.655Z,2.33
2022-11-16T18:31:03.183Z,2.67
2022-11-16T18:33:30.956Z,2.30
2022-11-16T18:35:58.736Z,2.00
2022-11-16T18:38:26.507Z,2.70
2022-11-16T18:41:04.623Z,2.10
2022-11-16T18:43:33.975Z,2.60
2022-11-16T18:46:03.638Z,3.23
2022-11-16T18:48:31.441Z,2.17
2022-11-16T18:50:59.838Z,2.40
2022-11-16T18:53:28.658Z,2.80
2022-11-16T18:55:58.200Z,2.47
2022-11-16T19:01:18.409Z,2.53
2022-11-16T19:03:46.443Z,3.20
2022-11-16T19:06:15.237Z,3.17
2022-11-16T19:08:43.642Z,2.60
2022-11-16T19:11:13.245Z,1.63
2022-11-16T19:13:43.500Z,2.73
2022-11-16T19:16:14.015Z,2.60
2022-11-16T19:18:43.095Z,2.33
2022-11-16T19:21:12.159Z,2.47
2022-11-16T19:23:42.808Z,3.10
2022-11-16T19:26:12.607Z,2.53
2022-11-16T19:28:42.144Z,2.60
2022-11-16T19:31:11.087Z,2.40
2022-11-16T19:33:39.001Z,2.83
2022-11-16T19:36:10.829Z,2.10
2022-11-16T19:38:39.453Z,2.50
2022-11-16T19:41:07.677Z,2.47
2022-11-16T19:43:36.187Z,2.87
2022-11-16T19:46:04.949Z,2.77
2022-11-16T19:48:33.310Z,2.33
2022-11-16T19:51:09.843Z,1.87
2022-11-16T19:53:38.120Z,3.30
2022-11-16T19:56:07.319Z,3.43
2022-11-16T19:58:36.980Z,2.27
2022-11-16T20:01:05.802Z,3.20
2022-11-16T20:03:34.314Z,2.23
2022-11-16T20:06:09.294Z,3.07
2022-11-16T20:08:37.437Z,2.20
2022-11-16T20:11:12.354Z,2.60
2022-11-16T20:13:40.232Z,3.07
2022-11-16T20:16:09.727Z,3.07
2022-11-16T20:18:37.754Z,2.70
2022-11-16T20:21:08.252Z,3.30
2022-11-16T20:23:37.571Z,3.30
2022-11-16T20:26:06.573Z,3.03
2022-11-16T20:28:38.270Z,2.27
2022-11-16T20:31:09.767Z,2.77
2022-11-16T20:33:38.230Z,2.73
2022-11-16T20:36:10.576Z,2.50
2022-11-16T20:38:39.562Z,3.37
2022-11-16T20:41:14.394Z,3.30
2022-11-16T20:43:43.413Z,2.90
2022-11-16T20:46:13.003Z,1.30
2022-11-16T20:48:42.803Z,2.80
2022-11-16T20:51:14.811Z,2.80
2022-11-16T20:53:42.532Z,2.70
2022-11-16T20:56:11.696Z,2.20
2022-11-16T20:58:40.072Z,2.63
2022-11-16T21:01:09.585Z,2.30
2022-11-16T21:03:37.616Z,2.60
2022-11-16T21:06:08.466Z,4.00
2022-11-16T21:08:38.702Z,2.27
2022-11-16T21:11:11.619Z,2.77
2022-11-16T21:13:57.048Z,2.07
2022-11-16T21:16:24.762Z,1.67
2022-11-16T21:18:52.566Z,2.60
2022-11-16T21:21:20.477Z,1.77
2022-11-16T21:23:52.359Z,2.17
2022-11-16T21:26:21.965Z,1.87
2022-11-16T21:28:49.885Z,2.43
2022-11-16T21:31:19.483Z,2.27
2022-11-16T21:33:48.085Z,2.00
2022-11-16T21:36:17.495Z,1.90
2022-11-16T21:38:45.691Z,2.47
2022-11-16T21:41:16.156Z,1.60
2022-11-16T21:43:44.251Z,1.60
2022-11-16T21:46:14.295Z,1.90
2022-11-16T21:48:42.352Z,1.70
2022-11-16T21:51:11.847Z,1.60
2022-11-16T21:53:40.150Z,1.90
2022-11-16T21:56:11.339Z,1.70
2022-11-16T21:58:41.775Z,1.53
2022-11-16T22:01:10.754Z,1.77
2022-11-16T22:03:39.025Z,2.03
2022-11-16T22:06:26.241Z,1.50
2022-11-16T22:08:54.139Z,2.03
2022-11-16T22:11:22.068Z,1.90
2022-11-16T22:13:51.433Z,1.80
2022-11-16T22:16:21.028Z,1.93
2022-11-16T22:18:48.700Z,1.73
2022-11-16T22:21:16.513Z,2.07
2022-11-16T22:23:44.247Z,1.77
2022-11-16T22:26:14.499Z,1.67
2022-11-16T22:28:42.496Z,2.07
2022-11-16T22:31:14.789Z,1.90
2022-11-16T22:33:43.285Z,1.80
2022-11-16T22:36:13.349Z,1.37
2022-11-16T22:38:41.118Z,1.57
2022-11-16T22:41:08.859Z,1.50
2022-11-16T22:43:37.478Z,1.93
2022-11-16T22:46:06.375Z,1.60
2022-11-16T22:48:37.195Z,1.00
2022-11-16T22:51:07.497Z,1.77
2022-11-16T22:53:35.946Z,1.10
2022-11-16T22:56:05.650Z,1.50
2022-11-16T22:58:34.361Z,1.33
2022-11-16T23:01:02.097Z,1.77
2022-11-16T23:03:30.173Z,1.67
2022-11-16T23:05:59.573Z,1.17
2022-11-16T23:08:27.750Z,1.43
2022-11-16T23:11:17.490Z,2.30
2022-11-16T23:14:03.400Z,0.97
2022-11-16T23:16:31.184Z,1.23
2022-11-16T23:19:00.161Z,1.77
2022-11-16T23:21:46.743Z,1.40
2022-11-16T23:24:34.012Z,1.43
2022-11-16T23:27:21.199Z,1.10
2022-11-16T23:29:49.015Z,1.07
2022-11-16T23:32:16.790Z,1.67
2022-11-16T23:34:44.648Z,1.33
2022-11-16T23:37:13.725Z,2.03
2022-11-16T23:39:41.383Z,1.97
2022-11-16T23:42:27.494Z,1.80
2022-11-16T23:44:55.238Z,1.27
2022-11-16T23:47:23.087Z,1.63
2022-11-16T23:49:50.892Z,1.40
2022-11-16T23:52:20.042Z,1.50
2022-11-16T23:54:47.773Z,2.07
2022-11-16T23:57:15.485Z,1.40
2022-11-16T23:59:43.186Z,1.63
